sensor_id;sensor_type;location;lat;lon;timestamp;pressure;altitude;pressure_sealevel;temperature;humidity
73941;BME280;62294;48.554;10.202;2023-05-21T00:02:18;90275.22;;;13.54;100.00
73941;BME280;62294;48.554;10.202;2023-05-21T00:04:46;90266.06;;;13.44;100.00
73941;BME280;62294;48.554;10.202;2023-05-21T00:07:12;90244.34;;;13.39;100.00
73941;BME280;62294;48.554;10.202;2023-05-21T00:09:40;90210.78;;;13.31;100.00
73941;BME280;62294;48.554;10.202;2023-05-21T00:12:07;90201.66;;;13.25;100.00
73941;BME280;62294;48.554;10.202;2023-05-21T00:14:35;90257.22;;;13.23;100.00
73941;BME280;62294;48.554;10.202;2023-05-21T00:17:03;90222.19;;;13.24;100.00
73941;BME280;62294;48.554;10.202;2023-05-21T00:19:30;90211.53;;;13.21;100.00
73941;BME280;62294;48.554;10.202;2023-05-21T00:21:58;90179.56;;;13.21;100.00
73941;BME280;62294;48.554;10.202;2023-05-21T00:24:28;90147.59;;;13.21;100.00
73941;BME280;62294;48.554;10.202;2023-05-21T00:26:54;90121.66;;;13.14;100.00
73941;BME280;62294;48.554;10.202;2023-05-21T00:29:21;90091.97;;;13.12;100.00
73941;BME280;62294;48.554;10.202;2023-05-21T00:31:48;90084.72;;;13.06;100.00
73941;BME280;62294;48.554;10.202;2023-05-21T00:34:18;90061.47;;;12.99;100.00
73941;BME280;62294;48.554;10.202;2023-05-21T00:36:45;90846.94;;;12.94;100.00
73941;BME280;62294;48.554;10.202;2023-05-21T00:39:12;90825.63;;;12.94;100.00
73941;BME280;62294;48.554;10.202;2023-05-21T00:41:38;90800.88;;;12.93;100.00
73941;BME280;62294;48.554;10.202;2023-05-21T00:44:08;90777.00;;;13.00;100.00
73941;BME280;62294;48.554;10.202;2023-05-21T00:46:35;90744.41;;;13.10;100.00
73941;BME280;62294;48.554;10.202;2023-05-21T00:49:02;91409.63;;;13.15;100.00
73941;BME280;62294;48.554;10.202;2023-05-21T00:51:28;91644.56;;;13.13;100.00
73941;BME280;62294;48.554;10.202;2023-05-21T00:53:56;91722.94;;;13.12;100.00
73941;BME280;62294;48.554;10.202;2023-05-21T00:56:23;91759.53;;;13.12;100.00
73941;BME280;62294;48.554;10.202;2023-05-21T00:58:53;91786.06;;;13.08;100.00
73941;BME280;62294;48.554;10.202;2023-05-21T01:01:22;91790.84;;;13.03;100.00
73941;BME280;62294;48.554;10.202;2023-05-21T01:03:52;91800.50;;;12.95;100.00
73941;BME280;62294;48.554;10.202;2023-05-21T01:06:19;91793.94;;;12.93;100.00
73941;BME280;62294;48.554;10.202;2023-05-21T01:08:46;91785.75;;;12.86;100.00
73941;BME280;62294;48.554;10.202;2023-05-21T01:11:13;91792.41;;;12.79;100.00
73941;BME280;62294;48.554;10.202;2023-05-21T01:13:40;91791.06;;;12.73;100.00
73941;BME280;62294;48.554;10.202;2023-05-21T01:16:08;91768.66;;;12.74;100.00
73941;BME280;62294;48.554;10.202;2023-05-21T01:18:36;91762.22;;;12.75;100.00
73941;BME280;62294;48.554;10.202;2023-05-21T01:21:04;91751.13;;;12.73;100.00
73941;BME280;62294;48.554;10.202;2023-05-21T01:23:31;91736.13;;;12.69;100.00
73941;BME280;62294;48.554;10.202;2023-05-21T01:25:57;91727.41;;;12.68;100.00
73941;BME280;62294;48.554;10.202;2023-05-21T01:28:23;91714.31;;;12.63;100.00
73941;BME280;62294;48.554;10.202;2023-05-21T01:30:50;91715.53;;;12.54;100.00
73941;BME280;62294;48.554;10.202;2023-05-21T01:33:23;91698.34;;;12.51;100.00
73941;BME280;62294;48.554;10.202;2023-05-21T01:36:17;91664.28;;;12.57;100.00
73941;BME280;62294;48.554;10.202;2023-05-21T01:39:01;91650.75;;;12.50;100.00
73941;BME280;62294;48.554;10.202;2023-05-21T01:41:33;91648.53;;;12.40;100.00
73941;BME280;62294;48.554;10.202;2023-05-21T01:44:02;91637.81;;;12.36;100.00
73941;BME280;62294;48.554;10.202;2023-05-21T01:46:33;91628.16;;;12.32;100.00
73941;BME280;62294;48.554;10.202;2023-05-21T01:49:04;91613.94;;;12.28;100.00
73941;BME280;62294;48.554;10.202;2023-05-21T01:51:31;91594.13;;;12.25;100.00
73941;BME280;62294;48.554;10.202;2023-05-21T01:53:58;91587.81;;;12.18;100.00
73941;BME280;62294;48.554;10.202;2023-05-21T01:56:25;91578.19;;;12.13;100.00
73941;BME280;62294;48.554;10.202;2023-05-21T01:58:56;91560.88;;;12.07;100.00
73941;BME280;62294;48.554;10.202;2023-05-21T02:01:25;91547.06;;;12.01;100.00
73941;BME280;62294;48.554;10.202;2023-05-21T02:03:52;91536.28;;;11.98;100.00
73941;BME280;62294;48.554;10.202;2023-05-21T02:06:19;91521.00;;;11.95;100.00
73941;BME280;62294;48.554;10.202;2023-05-21T02:08:46;91511.03;;;11.92;100.00
73941;BME280;62294;48.554;10.202;2023-05-21T02:11:13;91494.97;;;11.88;100.00
73941;BME280;62294;48.554;10.202;2023-05-21T02:13:40;91477.03;;;11.85;100.00
73941;BME280;62294;48.554;10.202;2023-05-21T02:16:08;91467.50;;;11.84;100.00
73941;BME280;62294;48.554;10.202;2023-05-21T02:18:41;91443.91;;;11.83;100.00
73941;BME280;62294;48.554;10.202;2023-05-21T02:21:09;91415.78;;;11.82;100.00
73941;BME280;62294;48.554;10.202;2023-05-21T02:23:38;91397.38;;;11.77;100.00
73941;BME280;62294;48.554;10.202;2023-05-21T02:26:05;91387.41;;;11.74;100.00
73941;BME280;62294;48.554;10.202;2023-05-21T02:28:33;91376.69;;;11.70;100.00
73941;BME280;62294;48.554;10.202;2023-05-21T02:30:59;91346.88;;;11.65;100.00
73941;BME280;62294;48.554;10.202;2023-05-21T02:33:26;91331.59;;;11.62;100.00
73941;BME280;62294;48.554;10.202;2023-05-21T02:35:53;91337.16;;;11.57;100.00
73941;BME280;62294;48.554;10.202;2023-05-21T02:38:19;91329.00;;;11.50;100.00
73941;BME280;62294;48.554;10.202;2023-05-21T02:40:49;91324.13;;;11.39;100.00
73941;BME280;62294;48.554;10.202;2023-05-21T02:43:19;91329.69;;;11.34;100.00
73941;BME280;62294;48.554;10.202;2023-05-21T02:45:47;91324.19;;;11.27;100.00
73941;BME280;62294;48.554;10.202;2023-05-21T02:48:14;91291.19;;;11.28;100.00
73941;BME280;62294;48.554;10.202;2023-05-21T02:50:41;91274.81;;;11.26;100.00
73941;BME280;62294;48.554;10.202;2023-05-21T02:53:07;91254.66;;;11.25;100.00
73941;BME280;62294;48.554;10.202;2023-05-21T02:55:33;91239.47;;;11.26;100.00
73941;BME280;62294;48.554;10.202;2023-05-21T02:58:01;91226.97;;;11.26;100.00
73941;BME280;62294;48.554;10.202;2023-05-21T03:00:27;91207.25;;;11.27;100.00
73941;BME280;62294;48.554;10.202;2023-05-21T03:02:54;91199.28;;;11.27;100.00
73941;BME280;62294;48.554;10.202;2023-05-21T03:05:21;91193.97;;;11.27;100.00
73941;BME280;62294;48.554;10.202;2023-05-21T03:07:47;91189.59;;;11.19;100.00
73941;BME280;62294;48.554;10.202;2023-05-21T03:10:14;91174.25;;;11.13;100.00
73941;BME280;62294;48.554;10.202;2023-05-21T03:12:41;91167.03;;;11.13;100.00
73941;BME280;62294;48.554;10.202;2023-05-21T03:15:08;91157.88;;;11.11;100.00
73941;BME280;62294;48.554;10.202;2023-05-21T03:17:34;91147.13;;;11.07;100.00
73941;BME280;62294;48.554;10.202;2023-05-21T03:20:01;91139.84;;;11.04;100.00
73941;BME280;62294;48.554;10.202;2023-05-21T03:22:30;91115.19;;;11.04;100.00
73941;BME280;62294;48.554;10.202;2023-05-21T03:24:58;91107.53;;;11.02;100.00
73941;BME280;62294;48.554;10.202;2023-05-21T03:27:25;91103.19;;;11.10;100.00
73941;BME280;62294;48.554;10.202;2023-05-21T03:29:52;91096.34;;;11.09;100.00
73941;BME280;62294;48.554;10.202;2023-05-21T03:32:20;91084.81;;;11.05;100.00
73941;BME280;62294;48.554;10.202;2023-05-21T03:34:48;90984.00;;;11.08;100.00
73941;BME280;62294;48.554;10.202;2023-05-21T03:37:14;90959.72;;;11.10;100.00
73941;BME280;62294;48.554;10.202;2023-05-21T03:39:40;90938.56;;;11.13;100.00
73941;BME280;62294;48.554;10.202;2023-05-21T03:42:07;90966.91;;;11.09;100.00
73941;BME280;62294;48.554;10.202;2023-05-21T03:44:34;90957.44;;;11.08;100.00
73941;BME280;62294;48.554;10.202;2023-05-21T03:47:00;90942.16;;;11.05;100.00
73941;BME280;62294;48.554;10.202;2023-05-21T03:49:28;90940.53;;;11.01;100.00
73941;BME280;62294;48.554;10.202;2023-05-21T03:51:54;90941.31;;;11.01;100.00
73941;BME280;62294;48.554;10.202;2023-05-21T03:54:21;90934.88;;;11.02;100.00
73941;BME280;62294;48.554;10.202;2023-05-21T03:56:47;90936.44;;;11.03;100.00
73941;BME280;62294;48.554;10.202;2023-05-21T03:59:14;90918.69;;;11.07;100.00
73941;BME280;62294;48.554;10.202;2023-05-21T04:01:40;90905.97;;;11.16;100.00
73941;BME280;62294;48.554;10.202;2023-05-21T04:04:08;90898.16;;;11.23;100.00
73941;BME280;62294;48.554;10.202;2023-05-21T04:06:34;90881.88;;;11.25;100.00
73941;BME280;62294;48.554;10.202;2023-05-21T04:09:01;90859.16;;;11.27;100.00
73941;BME280;62294;48.554;10.202;2023-05-21T04:11:29;90858.81;;;11.29;100.00
73941;BME280;62294;48.554;10.202;2023-05-21T04:13:56;90861.91;;;11.31;100.00
73941;BME280;62294;48.554;10.202;2023-05-21T04:16:22;90855.88;;;11.34;100.00
73941;BME280;62294;48.554;10.202;2023-05-21T04:18:50;90861.53;;;11.32;100.00
73941;BME280;62294;48.554;10.202;2023-05-21T04:21:17;90848.13;;;11.45;100.00
73941;BME280;62294;48.554;10.202;2023-05-21T04:23:44;90833.22;;;11.59;100.00
73941;BME280;62294;48.554;10.202;2023-05-21T04:26:11;90833.03;;;11.68;100.00
73941;BME280;62294;48.554;10.202;2023-05-21T04:28:37;90818.75;;;11.76;100.00
73941;BME280;62294;48.554;10.202;2023-05-21T04:31:07;90824.47;;;11.78;100.00
73941;BME280;62294;48.554;10.202;2023-05-21T04:33:34;90817.03;;;11.87;100.00
73941;BME280;62294;48.554;10.202;2023-05-21T04:36:01;90817.25;;;11.97;100.00
73941;BME280;62294;48.554;10.202;2023-05-21T04:38:29;90796.97;;;12.12;100.00
73941;BME280;62294;48.554;10.202;2023-05-21T04:40:55;90800.81;;;12.15;100.00
73941;BME280;62294;48.554;10.202;2023-05-21T04:43:23;90793.34;;;12.24;100.00
73941;BME280;62294;48.554;10.202;2023-05-21T04:45:53;90785.22;;;12.39;100.00
73941;BME280;62294;48.554;10.202;2023-05-21T04:48:24;90780.84;;;12.50;100.00
73941;BME280;62294;48.554;10.202;2023-05-21T04:50:51;90779.06;;;12.58;100.00
73941;BME280;62294;48.554;10.202;2023-05-21T04:53:22;90781.22;;;12.75;100.00
73941;BME280;62294;48.554;10.202;2023-05-21T04:55:49;90777.59;;;12.87;100.00
73941;BME280;62294;48.554;10.202;2023-05-21T04:58:15;90772.09;;;13.02;100.00
73941;BME280;62294;48.554;10.202;2023-05-21T05:00:45;90785.47;;;13.06;100.00
73941;BME280;62294;48.554;10.202;2023-05-21T05:03:12;90791.69;;;13.17;100.00
73941;BME280;62294;48.554;10.202;2023-05-21T05:05:39;90804.81;;;13.29;100.00
73941;BME280;62294;48.554;10.202;2023-05-21T05:08:06;90822.94;;;13.46;100.00
73941;BME280;62294;48.554;10.202;2023-05-21T05:10:32;90816.66;;;13.65;100.00
73941;BME280;62294;48.554;10.202;2023-05-21T05:12:59;90864.72;;;13.68;100.00
73941;BME280;62294;48.554;10.202;2023-05-21T05:15:26;90908.81;;;13.59;100.00
73941;BME280;62294;48.554;10.202;2023-05-21T05:17:52;90930.47;;;13.83;100.00
73941;BME280;62294;48.554;10.202;2023-05-21T05:20:19;90955.47;;;14.01;100.00
73941;BME280;62294;48.554;10.202;2023-05-21T05:22:46;90970.66;;;14.27;100.00
73941;BME280;62294;48.554;10.202;2023-05-21T05:25:13;90993.88;;;14.53;100.00
73941;BME280;62294;48.554;10.202;2023-05-21T05:27:39;91026.19;;;14.74;100.00
73941;BME280;62294;48.554;10.202;2023-05-21T05:30:06;91050.47;;;14.99;100.00
73941;BME280;62294;48.554;10.202;2023-05-21T05:32:33;91138.41;;;15.07;100.00
73941;BME280;62294;48.554;10.202;2023-05-21T05:34:59;91239.38;;;15.17;100.00
73941;BME280;62294;48.554;10.202;2023-05-21T05:37:27;91303.72;;;15.57;100.00
73941;BME280;62294;48.554;10.202;2023-05-21T05:39:54;91389.63;;;15.79;100.00
73941;BME280;62294;48.554;10.202;2023-05-21T05:42:21;91461.19;;;16.11;100.00
73941;BME280;62294;48.554;10.202;2023-05-21T05:44:47;91594.47;;;16.21;100.00
73941;BME280;62294;48.554;10.202;2023-05-21T05:47:14;91769.72;;;16.20;100.00
73941;BME280;62294;48.554;10.202;2023-05-21T05:49:41;91871.41;;;16.55;100.00
73941;BME280;62294;48.554;10.202;2023-05-21T05:52:08;92029.06;;;16.88;100.00
73941;BME280;62294;48.554;10.202;2023-05-21T05:54:34;92135.81;;;17.21;100.00
73941;BME280;62294;48.554;10.202;2023-05-21T05:57:00;92267.47;;;17.28;100.00
73941;BME280;62294;48.554;10.202;2023-05-21T05:59:27;92430.66;;;17.22;100.00
73941;BME280;62294;48.554;10.202;2023-05-21T06:01:54;92552.31;;;17.42;100.00
73941;BME280;62294;48.554;10.202;2023-05-21T06:04:20;92724.66;;;17.08;100.00
73941;BME280;62294;48.554;10.202;2023-05-21T06:06:47;92792.41;;;17.17;100.00
73941;BME280;62294;48.554;10.202;2023-05-21T06:09:13;92888.44;;;17.59;100.00
73941;BME280;62294;48.554;10.202;2023-05-21T06:11:40;93020.81;;;17.60;100.00
73941;BME280;62294;48.554;10.202;2023-05-21T06:14:07;93185.22;;;17.45;100.00
73941;BME280;62294;48.554;10.202;2023-05-21T06:16:33;93314.19;;;17.57;100.00
73941;BME280;62294;48.554;10.202;2023-05-21T06:19:00;93339.44;;;18.30;100.00
73941;BME280;62294;48.554;10.202;2023-05-21T06:21:27;93518.91;;;18.95;100.00
73941;BME280;62294;48.554;10.202;2023-05-21T06:23:54;93734.91;;;18.63;100.00
73941;BME280;62294;48.554;10.202;2023-05-21T06:26:20;93861.00;;;19.10;100.00
73941;BME280;62294;48.554;10.202;2023-05-21T06:28:48;93986.53;;;20.20;100.00
73941;BME280;62294;48.554;10.202;2023-05-21T06:31:14;94197.09;;;20.15;100.00
73941;BME280;62294;48.554;10.202;2023-05-21T06:33:41;94311.13;;;21.46;100.00
73941;BME280;62294;48.554;10.202;2023-05-21T06:36:08;94613.72;;;21.34;100.00
73941;BME280;62294;48.554;10.202;2023-05-21T06:38:35;94759.19;;;21.32;100.00
73941;BME280;62294;48.554;10.202;2023-05-21T06:41:01;94900.81;;;21.87;100.00
73941;BME280;62294;48.554;10.202;2023-05-21T06:43:29;94862.91;;;21.70;100.00
73941;BME280;62294;48.554;10.202;2023-05-21T06:45:56;95022.78;;;20.40;100.00
73941;BME280;62294;48.554;10.202;2023-05-21T06:48:22;95057.69;;;21.17;100.00
73941;BME280;62294;48.554;10.202;2023-05-21T06:50:49;95060.72;;;21.02;100.00
73941;BME280;62294;48.554;10.202;2023-05-21T06:53:15;95041.09;;;22.36;100.00
73941;BME280;62294;48.554;10.202;2023-05-21T06:55:42;95142.25;;;21.40;100.00
73941;BME280;62294;48.554;10.202;2023-05-21T06:58:11;95118.38;;;22.51;100.00
73941;BME280;62294;48.554;10.202;2023-05-21T07:00:38;95212.22;;;22.55;100.00
73941;BME280;62294;48.554;10.202;2023-05-21T07:03:04;95263.31;;;22.88;100.00
73941;BME280;62294;48.554;10.202;2023-05-21T07:05:31;95331.31;;;23.17;100.00
73941;BME280;62294;48.554;10.202;2023-05-21T07:07:58;95336.22;;;23.06;100.00
73941;BME280;62294;48.554;10.202;2023-05-21T07:10:24;95369.13;;;23.30;100.00
73941;BME280;62294;48.554;10.202;2023-05-21T07:12:51;95376.25;;;22.70;100.00
73941;BME280;62294;48.554;10.202;2023-05-21T07:15:18;95336.06;;;22.41;100.00
73941;BME280;62294;48.554;10.202;2023-05-21T07:17:44;95304.28;;;22.55;100.00
73941;BME280;62294;48.554;10.202;2023-05-21T07:20:12;95356.31;;;23.05;100.00
73941;BME280;62294;48.554;10.202;2023-05-21T07:22:38;95353.81;;;23.17;100.00
73941;BME280;62294;48.554;10.202;2023-05-21T07:25:05;95336.34;;;22.93;100.00
73941;BME280;62294;48.554;10.202;2023-05-21T07:27:32;95348.63;;;22.99;100.00
73941;BME280;62294;48.554;10.202;2023-05-21T07:29:59;95359.81;;;23.06;100.00
73941;BME280;62294;48.554;10.202;2023-05-21T07:32:25;95414.66;;;24.07;100.00
73941;BME280;62294;48.554;10.202;2023-05-21T07:34:55;95424.06;;;24.18;100.00
73941;BME280;62294;48.554;10.202;2023-05-21T07:37:21;95146.53;;;23.95;100.00
73941;BME280;62294;48.554;10.202;2023-05-21T07:39:48;95021.78;;;24.78;100.00
73941;BME280;62294;48.554;10.202;2023-05-21T07:42:15;94962.31;;;26.15;100.00
73941;BME280;62294;48.554;10.202;2023-05-21T07:44:41;94958.78;;;26.26;100.00
73941;BME280;62294;48.554;10.202;2023-05-21T07:47:08;94345.84;;;26.61;100.00
73941;BME280;62294;48.554;10.202;2023-05-21T07:49:35;93473.19;;;26.67;100.00
73941;BME280;62294;48.554;10.202;2023-05-21T07:52:01;93596.91;;;28.25;100.00
73941;BME280;62294;48.554;10.202;2023-05-21T07:54:28;93430.50;;;26.10;100.00
73941;BME280;62294;48.554;10.202;2023-05-21T07:56:55;93359.97;;;26.73;100.00
73941;BME280;62294;48.554;10.202;2023-05-21T07:59:21;93340.47;;;25.82;100.00
73941;BME280;62294;48.554;10.202;2023-05-21T08:01:48;93078.25;;;25.18;100.00
73941;BME280;62294;48.554;10.202;2023-05-21T08:04:14;93051.16;;;25.43;100.00
73941;BME280;62294;48.554;10.202;2023-05-21T08:06:41;92898.50;;;25.90;100.00
73941;BME280;62294;48.554;10.202;2023-05-21T08:09:11;92999.84;;;25.23;100.00
73941;BME280;62294;48.554;10.202;2023-05-21T08:11:38;92934.59;;;25.16;100.00
73941;BME280;62294;48.554;10.202;2023-05-21T08:14:05;93001.81;;;25.33;100.00
73941;BME280;62294;48.554;10.202;2023-05-21T08:16:32;93119.00;;;25.14;100.00
73941;BME280;62294;48.554;10.202;2023-05-21T08:18:58;93035.75;;;25.99;100.00
73941;BME280;62294;48.554;10.202;2023-05-21T08:21:25;93155.19;;;26.47;100.00
73941;BME280;62294;48.554;10.202;2023-05-21T08:23:52;93295.56;;;26.20;100.00
73941;BME280;62294;48.554;10.202;2023-05-21T08:26:19;93247.66;;;26.04;100.00
73941;BME280;62294;48.554;10.202;2023-05-21T08:28:47;93163.94;;;25.01;100.00
73941;BME280;62294;48.554;10.202;2023-05-21T08:31:13;93196.03;;;24.82;100.00
73941;BME280;62294;48.554;10.202;2023-05-21T08:33:49;92816.31;;;22.63;100.00
73941;BME280;62294;48.554;10.202;2023-05-21T08:36:16;92616.13;;;21.89;100.00
73941;BME280;62294;48.554;10.202;2023-05-21T08:38:43;92657.19;;;22.45;100.00
73941;BME280;62294;48.554;10.202;2023-05-21T08:41:15;92829.06;;;23.50;100.00
73941;BME280;62294;48.554;10.202;2023-05-21T08:43:44;93123.69;;;23.16;100.00
73941;BME280;62294;48.554;10.202;2023-05-21T08:46:16;93313.91;;;23.51;100.00
73941;BME280;62294;48.554;10.202;2023-05-21T08:48:46;93500.88;;;23.25;100.00
73941;BME280;62294;48.554;10.202;2023-05-21T08:51:12;93371.03;;;23.39;100.00
73941;BME280;62294;48.554;10.202;2023-05-21T08:53:39;93478.34;;;23.21;100.00
73941;BME280;62294;48.554;10.202;2023-05-21T08:56:06;93634.59;;;22.79;100.00
73941;BME280;62294;48.554;10.202;2023-05-21T08:58:33;93684.38;;;23.24;100.00
73941;BME280;62294;48.554;10.202;2023-05-21T09:01:02;93756.38;;;22.75;100.00
73941;BME280;62294;48.554;10.202;2023-05-21T09:03:30;93772.63;;;22.75;100.00
73941;BME280;62294;48.554;10.202;2023-05-21T09:05:58;93828.13;;;22.97;100.00
73941;BME280;62294;48.554;10.202;2023-05-21T09:08:34;93787.28;;;22.58;100.00
73941;BME280;62294;48.554;10.202;2023-05-21T09:11:01;93678.78;;;22.05;100.00
73941;BME280;62294;48.554;10.202;2023-05-21T09:13:30;93698.28;;;22.88;100.00
73941;BME280;62294;48.554;10.202;2023-05-21T09:15:58;93876.38;;;23.22;100.00
73941;BME280;62294;48.554;10.202;2023-05-21T09:18:25;93978.38;;;23.15;100.00
73941;BME280;62294;48.554;10.202;2023-05-21T09:20:54;94048.81;;;23.15;100.00
73941;BME280;62294;48.554;10.202;2023-05-21T09:23:21;94038.06;;;23.18;100.00
73941;BME280;62294;48.554;10.202;2023-05-21T09:25:49;94038.34;;;24.04;100.00
73941;BME280;62294;48.554;10.202;2023-05-21T09:28:18;94247.69;;;23.62;100.00
73941;BME280;62294;48.554;10.202;2023-05-21T09:30:45;94202.53;;;23.54;100.00
73941;BME280;62294;48.554;10.202;2023-05-21T09:33:23;94216.94;;;23.43;100.00
73941;BME280;62294;48.554;10.202;2023-05-21T09:35:50;94192.44;;;23.67;100.00
73941;BME280;62294;48.554;10.202;2023-05-21T09:38:21;94315.09;;;23.88;100.00
73941;BME280;62294;48.554;10.202;2023-05-21T09:40:47;94258.13;;;23.88;100.00
73941;BME280;62294;48.554;10.202;2023-05-21T09:43:14;94244.78;;;24.23;100.00
73941;BME280;62294;48.554;10.202;2023-05-21T09:45:53;94315.47;;;24.85;100.00
73941;BME280;62294;48.554;10.202;2023-05-21T09:48:40;94449.72;;;24.29;100.00
73941;BME280;62294;48.554;10.202;2023-05-21T09:51:13;94566.63;;;25.12;100.00
73941;BME280;62294;48.554;10.202;2023-05-21T09:53:55;94521.09;;;24.81;100.00
73941;BME280;62294;48.554;10.202;2023-05-21T09:56:26;94539.47;;;26.02;100.00
73941;BME280;62294;48.554;10.202;2023-05-21T09:58:56;94548.63;;;26.25;100.00
73941;BME280;62294;48.554;10.202;2023-05-21T10:01:23;94547.16;;;24.82;100.00
73941;BME280;62294;48.554;10.202;2023-05-21T10:03:55;94590.16;;;26.53;100.00
73941;BME280;62294;48.554;10.202;2023-05-21T10:06:27;94697.78;;;27.83;100.00
73941;BME280;62294;48.554;10.202;2023-05-21T10:08:56;94764.72;;;28.72;100.00
73941;BME280;62294;48.554;10.202;2023-05-21T10:11:26;94778.38;;;27.58;100.00
73941;BME280;62294;48.554;10.202;2023-05-21T10:13:57;94760.25;;;26.84;100.00
73941;BME280;62294;48.554;10.202;2023-05-21T10:16:27;94794.31;;;26.74;100.00
73941;BME280;62294;48.554;10.202;2023-05-21T10:18:56;94821.75;;;27.97;100.00
73941;BME280;62294;48.554;10.202;2023-05-21T10:21:25;94869.53;;;27.22;100.00
73941;BME280;62294;48.554;10.202;2023-05-21T10:23:52;94890.19;;;27.23;100.00
73941;BME280;62294;48.554;10.202;2023-05-21T10:26:22;94916.44;;;27.43;100.00
73941;BME280;62294;48.554;10.202;2023-05-21T10:28:50;94910.59;;;28.26;100.00
73941;BME280;62294;48.554;10.202;2023-05-21T10:31:17;95002.25;;;28.93;100.00
73941;BME280;62294;48.554;10.202;2023-05-21T10:33:44;95023.19;;;28.00;100.00
73941;BME280;62294;48.554;10.202;2023-05-21T10:36:11;94912.84;;;26.00;100.00
73941;BME280;62294;48.554;10.202;2023-05-21T10:38:39;94934.66;;;26.68;100.00
73941;BME280;62294;48.554;10.202;2023-05-21T10:41:06;94948.25;;;27.08;100.00
73941;BME280;62294;48.554;10.202;2023-05-21T10:43:55;94957.88;;;27.17;100.00
73941;BME280;62294;48.554;10.202;2023-05-21T10:47:09;95003.09;;;27.34;100.00
73941;BME280;62294;48.554;10.202;2023-05-21T10:58:49;95151.63;;;29.17;100.00
73941;BME280;62294;48.554;10.202;2023-05-21T11:01:20;95145.66;;;28.30;100.00
73941;BME280;62294;48.554;10.202;2023-05-21T11:03:48;95159.91;;;29.93;100.00
73941;BME280;62294;48.554;10.202;2023-05-21T11:06:22;95187.25;;;27.52;100.00
73941;BME280;62294;48.554;10.202;2023-05-21T11:08:50;95137.03;;;27.41;100.00
73941;BME280;62294;48.554;10.202;2023-05-21T11:14:26;95282.25;;;29.86;100.00
73941;BME280;62294;48.554;10.202;2023-05-21T11:16:53;95281.31;;;27.94;100.00
73941;BME280;62294;48.554;10.202;2023-05-21T11:19:20;95309.75;;;29.74;100.00
73941;BME280;62294;48.554;10.202;2023-05-21T11:21:50;95352.78;;;27.84;100.00
73941;BME280;62294;48.554;10.202;2023-05-21T11:24:19;95142.66;;;26.44;100.00
73941;BME280;62294;48.554;10.202;2023-05-21T11:29:13;95389.44;;;31.41;100.00
73941;BME280;62294;48.554;10.202;2023-05-21T11:32:00;95397.97;;;28.89;100.00
73941;BME280;62294;48.554;10.202;2023-05-21T11:34:41;95353.88;;;27.68;100.00
73941;BME280;62294;48.554;10.202;2023-05-21T11:39:44;95420.53;;;29.92;100.00
73941;BME280;62294;48.554;10.202;2023-05-21T11:42:11;95424.44;;;29.60;100.00
73941;BME280;62294;48.554;10.202;2023-05-21T11:44:47;95422.31;;;29.53;100.00
73941;BME280;62294;48.554;10.202;2023-05-21T11:47:18;95400.09;;;29.55;100.00
73941;BME280;62294;48.554;10.202;2023-05-21T11:49:44;95448.97;;;30.03;100.00
73941;BME280;62294;48.554;10.202;2023-05-21T11:52:12;95445.00;;;30.89;100.00
73941;BME280;62294;48.554;10.202;2023-05-21T11:54:43;95450.47;;;30.16;100.00
73941;BME280;62294;48.554;10.202;2023-05-21T11:57:12;95447.50;;;32.11;100.00
73941;BME280;62294;48.554;10.202;2023-05-21T11:59:46;95468.97;;;31.34;100.00
73941;BME280;62294;48.554;10.202;2023-05-21T12:02:14;95466.63;;;31.78;100.00
73941;BME280;62294;48.554;10.202;2023-05-21T12:04:45;95477.88;;;31.46;100.00
73941;BME280;62294;48.554;10.202;2023-05-21T12:07:15;95496.81;;;29.90;100.00
73941;BME280;62294;48.554;10.202;2023-05-21T12:09:46;95481.69;;;29.33;100.00
73941;BME280;62294;48.554;10.202;2023-05-21T12:12:14;95497.69;;;29.63;100.00
73941;BME280;62294;48.554;10.202;2023-05-21T12:14:47;95491.53;;;30.85;100.00
73941;BME280;62294;48.554;10.202;2023-05-21T12:17:16;95497.75;;;30.63;100.00
73941;BME280;62294;48.554;10.202;2023-05-21T12:19:43;95530.38;;;29.00;100.00
73941;BME280;62294;48.554;10.202;2023-05-21T12:22:10;95519.38;;;28.45;100.00
73941;BME280;62294;48.554;10.202;2023-05-21T12:24:37;95529.06;;;28.82;100.00
73941;BME280;62294;48.554;10.202;2023-05-21T12:27:06;95558.34;;;27.16;100.00
73941;BME280;62294;48.554;10.202;2023-05-21T12:29:36;95535.47;;;27.41;100.00
73941;BME280;62294;48.554;10.202;2023-05-21T12:32:06;95529.25;;;28.61;100.00
73941;BME280;62294;48.554;10.202;2023-05-21T12:34:45;95519.38;;;29.12;100.00
73941;BME280;62294;48.554;10.202;2023-05-21T12:39:46;95503.06;;;30.56;100.00
73941;BME280;62294;48.554;10.202;2023-05-21T12:42:13;95494.63;;;32.09;100.00
73941;BME280;62294;48.554;10.202;2023-05-21T12:44:45;95484.63;;;33.06;100.00
73941;BME280;62294;48.554;10.202;2023-05-21T12:47:12;95527.84;;;29.78;100.00
73941;BME280;62294;48.554;10.202;2023-05-21T12:49:40;95514.22;;;30.82;100.00
73941;BME280;62294;48.554;10.202;2023-05-21T12:52:09;95505.31;;;32.14;100.00
73941;BME280;62294;48.554;10.202;2023-05-21T12:54:39;95508.59;;;31.33;100.00
73941;BME280;62294;48.554;10.202;2023-05-21T12:57:16;95508.13;;;31.50;100.00
73941;BME280;62294;48.554;10.202;2023-05-21T12:59:54;95513.81;;;30.65;100.00
73941;BME280;62294;48.554;10.202;2023-05-21T13:07:26;95519.94;;;30.08;100.00
73941;BME280;62294;48.554;10.202;2023-05-21T13:09:54;95519.28;;;29.80;100.00
73941;BME280;62294;48.554;10.202;2023-05-21T13:12:22;95516.72;;;29.87;100.00